Oak Island, North Carolina
Current Conditions -  °F | °C
As of 11:15 AM on Sunday 23 Nov 2014 (Local Time) from KSUT Reporting Station
Light Rain Light Rain  
Wind Chill: 60°   Ceiling: Unl
Heat Index: 60°   Visibility: 7mi
Dew Point: 59°   Wind: 6mph
Humidity: 96%   Direction: 100°E
Pressure: 30.17"   Gusts: NA
Location:  33.92°N, 78.16°W
Report Text: KSUT 231615Z AUTO 10005KT 7SM -RA SCT035 SCT050 SCT070 16/15 A3017 RMK AO2 T01560150
Loading
Personal Weather Stations






























Interactive Weather Map New forecast layout! Learn more

10-Day Weather Forecast

Advertisements
Track Severe Weather on mobile